sensor_id;sensor_type;location;lat;lon;timestamp;pressure;altitude;pressure_sealevel;temperature;humidity
84028;BME280;74111;45.650;25.612;2023-12-20T05:33:58;94841.77;;;-1.00;69.91
84028;BME280;74111;45.650;25.612;2023-12-20T05:36:27;94837.09;;;-1.05;69.85
84028;BME280;74111;45.650;25.612;2023-12-20T05:38:57;94829.23;;;-1.01;70.01
84028;BME280;74111;45.650;25.612;2023-12-20T05:41:25;94830.86;;;-0.94;70.36
84028;BME280;74111;45.650;25.612;2023-12-20T05:43:55;94821.35;;;-0.88;70.57
84028;BME280;74111;45.650;25.612;2023-12-20T05:46:24;94818.70;;;-0.82;70.91
84028;BME280;74111;45.650;25.612;2023-12-20T05:48:52;94822.77;;;-0.76;70.85
84028;BME280;74111;45.650;25.612;2023-12-20T05:51:21;94821.33;;;-0.72;71.05
84028;BME280;74111;45.650;25.612;2023-12-20T05:53:51;94817.95;;;-0.65;70.87
84028;BME280;74111;45.650;25.612;2023-12-20T05:56:19;94811.15;;;-0.62;70.63
84028;BME280;74111;45.650;25.612;2023-12-20T05:58:51;94810.96;;;-0.57;70.44
84028;BME280;74111;45.650;25.612;2023-12-20T06:01:20;94807.45;;;-0.52;70.44
84028;BME280;74111;45.650;25.612;2023-12-20T06:03:50;94806.18;;;-0.46;70.58
84028;BME280;74111;45.650;25.612;2023-12-20T06:06:20;94802.14;;;-0.42;70.42
84028;BME280;74111;45.650;25.612;2023-12-20T06:08:49;94800.42;;;-0.41;70.31
84028;BME280;74111;45.650;25.612;2023-12-20T06:11:19;94796.49;;;-0.41;70.23
84028;BME280;74111;45.650;25.612;2023-12-20T06:13:48;94797.23;;;-0.42;70.23
84028;BME280;74111;45.650;25.612;2023-12-20T06:16:20;94787.30;;;-0.40;70.08
84028;BME280;74111;45.650;25.612;2023-12-20T06:18:49;94786.58;;;-0.36;69.90
84028;BME280;74111;45.650;25.612;2023-12-20T06:21:19;94785.44;;;-0.29;70.35
84028;BME280;74111;45.650;25.612;2023-12-20T06:23:48;94788.98;;;-0.19;70.40
84028;BME280;74111;45.650;25.612;2023-12-20T06:26:17;94790.36;;;-0.12;70.15
84028;BME280;74111;45.650;25.612;2023-12-20T06:28:46;94791.86;;;-0.10;69.94
84028;BME280;74111;45.650;25.612;2023-12-20T06:31:16;94789.02;;;-0.07;69.85
84028;BME280;74111;45.650;25.612;2023-12-20T06:33:46;94791.50;;;-0.06;69.58
84028;BME280;74111;45.650;25.612;2023-12-20T06:36:15;94794.02;;;-0.05;69.42
84028;BME280;74111;45.650;25.612;2023-12-20T06:38:44;94790.86;;;-0.03;69.45
84028;BME280;74111;45.650;25.612;2023-12-20T06:41:13;94788.42;;;0.02;69.59
84028;BME280;74111;45.650;25.612;2023-12-20T06:43:43;94789.94;;;0.10;69.88
84028;BME280;74111;45.650;25.612;2023-12-20T06:46:19;94793.83;;;0.10;68.90
84028;BME280;74111;45.650;25.612;2023-12-20T06:48:48;94793.97;;;0.09;68.99
84028;BME280;74111;45.650;25.612;2023-12-20T06:51:17;94796.00;;;0.08;68.93
84028;BME280;74111;45.650;25.612;2023-12-20T06:53:48;94795.17;;;0.08;69.02
84028;BME280;74111;45.650;25.612;2023-12-20T06:56:17;94792.45;;;0.06;68.96
84028;BME280;74111;45.650;25.612;2023-12-20T06:58:47;94789.34;;;0.07;69.02
84028;BME280;74111;45.650;25.612;2023-12-20T07:01:16;94788.66;;;0.11;69.11
84028;BME280;74111;45.650;25.612;2023-12-20T07:03:47;94790.69;;;0.17;69.69
84028;BME280;74111;45.650;25.612;2023-12-20T07:06:17;94790.10;;;0.24;69.43
84028;BME280;74111;45.650;25.612;2023-12-20T07:08:45;94785.80;;;0.28;69.08
84028;BME280;74111;45.650;25.612;2023-12-20T07:11:15;94780.88;;;0.31;69.05
84028;BME280;74111;45.650;25.612;2023-12-20T07:13:44;94777.70;;;0.32;68.94
84028;BME280;74111;45.650;25.612;2023-12-20T07:16:13;94773.70;;;0.35;68.87
84028;BME280;74111;45.650;25.612;2023-12-20T07:18:42;94778.65;;;0.45;69.10
84028;BME280;74111;45.650;25.612;2023-12-20T07:21:11;94773.70;;;0.60;68.97
84028;BME280;74111;45.650;25.612;2023-12-20T07:23:41;94766.30;;;0.77;68.74
84028;BME280;74111;45.650;25.612;2023-12-20T07:26:10;94764.94;;;0.95;68.51
84028;BME280;74111;45.650;25.612;2023-12-20T07:28:40;94763.94;;;1.11;68.31
84028;BME280;74111;45.650;25.612;2023-12-20T07:31:10;94759.98;;;1.24;67.94
84028;BME280;74111;45.650;25.612;2023-12-20T07:33:39;94757.52;;;1.36;67.48
84028;BME280;74111;45.650;25.612;2023-12-20T07:36:07;94755.35;;;1.49;67.31
84028;BME280;74111;45.650;25.612;2023-12-20T07:38:37;94752.33;;;1.64;67.15
84028;BME280;74111;45.650;25.612;2023-12-20T07:41:09;94752.95;;;1.80;66.73
84028;BME280;74111;45.650;25.612;2023-12-20T07:43:38;94750.20;;;1.97;66.22
84028;BME280;74111;45.650;25.612;2023-12-20T07:46:08;94747.94;;;2.11;65.93
84028;BME280;74111;45.650;25.612;2023-12-20T07:48:37;94739.25;;;2.18;65.36
84028;BME280;74111;45.650;25.612;2023-12-20T07:51:10;94738.20;;;2.18;65.37
84028;BME280;74111;45.650;25.612;2023-12-20T07:53:39;94739.80;;;2.24;66.17
84028;BME280;74111;45.650;25.612;2023-12-20T07:56:17;94736.02;;;2.33;66.37
84028;BME280;74111;45.650;25.612;2023-12-20T07:58:46;94739.85;;;2.42;65.89
84028;BME280;74111;45.650;25.612;2023-12-20T08:01:21;94740.78;;;2.48;65.21
84028;BME280;74111;45.650;25.612;2023-12-20T08:03:51;94741.11;;;2.50;64.61
84028;BME280;74111;45.650;25.612;2023-12-20T08:06:22;94742.27;;;2.52;64.53
84028;BME280;74111;45.650;25.612;2023-12-20T08:08:51;94738.31;;;2.53;64.32
84028;BME280;74111;45.650;25.612;2023-12-20T08:11:30;94738.45;;;2.55;64.91
84028;BME280;74111;45.650;25.612;2023-12-20T08:14:00;94734.13;;;2.66;64.85
84028;BME280;74111;45.650;25.612;2023-12-20T08:16:29;94726.73;;;2.70;64.04
84028;BME280;74111;45.650;25.612;2023-12-20T08:18:58;94724.73;;;2.73;64.15
84028;BME280;74111;45.650;25.612;2023-12-20T08:21:28;94716.56;;;2.81;64.57
84028;BME280;74111;45.650;25.612;2023-12-20T08:23:57;94713.77;;;2.92;64.56
84028;BME280;74111;45.650;25.612;2023-12-20T08:26:26;94706.20;;;3.04;64.64
84028;BME280;74111;45.650;25.612;2023-12-20T08:28:56;94707.13;;;3.16;64.64
84028;BME280;74111;45.650;25.612;2023-12-20T08:31:29;94703.35;;;3.27;64.33
84028;BME280;74111;45.650;25.612;2023-12-20T08:33:58;94696.46;;;3.34;64.23
84028;BME280;74111;45.650;25.612;2023-12-20T08:36:28;94691.56;;;3.44;64.43
84028;BME280;74111;45.650;25.612;2023-12-20T08:38:56;94687.66;;;3.53;63.44
84028;BME280;74111;45.650;25.612;2023-12-20T08:41:26;94682.66;;;3.58;63.49
84028;BME280;74111;45.650;25.612;2023-12-20T08:43:55;94685.63;;;3.65;63.51
84028;BME280;74111;45.650;25.612;2023-12-20T08:46:24;94677.67;;;3.72;63.56
84028;BME280;74111;45.650;25.612;2023-12-20T08:48:53;94672.02;;;3.84;63.58
84028;BME280;74111;45.650;25.612;2023-12-20T08:51:23;94666.83;;;3.90;62.70
84028;BME280;74111;45.650;25.612;2023-12-20T08:53:54;94661.52;;;3.93;63.25
84028;BME280;74111;45.650;25.612;2023-12-20T08:56:23;94658.02;;;3.95;62.32
84028;BME280;74111;45.650;25.612;2023-12-20T08:58:54;94660.77;;;3.98;62.96
84028;BME280;74111;45.650;25.612;2023-12-20T09:01:23;94654.10;;;4.06;63.51
84028;BME280;74111;45.650;25.612;2023-12-20T09:03:52;94647.57;;;4.11;62.52
84028;BME280;74111;45.650;25.612;2023-12-20T09:06:22;94638.49;;;4.12;62.57
84028;BME280;74111;45.650;25.612;2023-12-20T09:08:51;94633.36;;;4.18;63.58
84028;BME280;74111;45.650;25.612;2023-12-20T09:11:20;94628.21;;;4.27;63.30
84028;BME280;74111;45.650;25.612;2023-12-20T09:13:50;94618.05;;;4.37;63.33
84028;BME280;74111;45.650;25.612;2023-12-20T09:16:19;94617.98;;;4.43;62.43
84028;BME280;74111;45.650;25.612;2023-12-20T09:18:49;94613.70;;;4.43;62.38
84028;BME280;74111;45.650;25.612;2023-12-20T09:21:19;94608.10;;;4.45;62.02
84028;BME280;74111;45.650;25.612;2023-12-20T09:23:49;94601.50;;;4.45;61.82
84028;BME280;74111;45.650;25.612;2023-12-20T09:26:19;94599.19;;;4.49;62.39
84028;BME280;74111;45.650;25.612;2023-12-20T09:28:51;94594.83;;;4.52;62.66
84028;BME280;74111;45.650;25.612;2023-12-20T09:31:22;94587.92;;;4.54;61.49
84028;BME280;74111;45.650;25.612;2023-12-20T09:33:55;94582.14;;;4.58;61.51
84028;BME280;74111;45.650;25.612;2023-12-20T09:36:31;94575.14;;;4.64;61.79
84028;BME280;74111;45.650;25.612;2023-12-20T09:39:06;94570.41;;;4.70;60.59
84028;BME280;74111;45.650;25.612;2023-12-20T09:41:42;94564.84;;;4.68;60.92
84028;BME280;74111;45.650;25.612;2023-12-20T09:44:15;94558.16;;;4.73;61.06
84028;BME280;74111;45.650;25.612;2023-12-20T09:46:49;94552.59;;;4.76;60.96
84028;BME280;74111;45.650;25.612;2023-12-20T09:49:19;94547.09;;;4.76;61.21
84028;BME280;74111;45.650;25.612;2023-12-20T09:51:54;94543.01;;;4.80;61.56
84028;BME280;74111;45.650;25.612;2023-12-20T09:54:28;94538.65;;;4.85;61.23
84028;BME280;74111;45.650;25.612;2023-12-20T09:56:58;94536.17;;;4.91;61.80
84028;BME280;74111;45.650;25.612;2023-12-20T09:59:27;94531.26;;;5.00;60.65
84028;BME280;74111;45.650;25.612;2023-12-20T10:01:57;94529.16;;;4.99;60.24
84028;BME280;74111;45.650;25.612;2023-12-20T10:04:27;94518.52;;;5.01;61.22
84028;BME280;74111;45.650;25.612;2023-12-20T10:07:02;94509.64;;;5.09;60.78
84028;BME280;74111;45.650;25.612;2023-12-20T10:09:35;94500.48;;;5.13;59.80
84028;BME280;74111;45.650;25.612;2023-12-20T10:12:05;94493.39;;;5.09;59.01
84028;BME280;74111;45.650;25.612;2023-12-20T10:14:34;94494.46;;;5.07;59.86
84028;BME280;74111;45.650;25.612;2023-12-20T10:17:06;94490.98;;;5.11;59.87
84028;BME280;74111;45.650;25.612;2023-12-20T10:19:35;94482.30;;;5.10;59.35
84028;BME280;74111;45.650;25.612;2023-12-20T10:22:05;94475.45;;;5.07;58.93
84028;BME280;74111;45.650;25.612;2023-12-20T10:24:34;94478.02;;;5.05;59.45
84028;BME280;74111;45.650;25.612;2023-12-20T10:27:06;94472.48;;;5.09;59.42
84028;BME280;74111;45.650;25.612;2023-12-20T10:29:35;94470.96;;;5.13;59.03
84028;BME280;74111;45.650;25.612;2023-12-20T10:32:26;94464.34;;;5.15;58.88
84028;BME280;74111;45.650;25.612;2023-12-20T10:34:56;94463.83;;;5.20;59.32
84028;BME280;74111;45.650;25.612;2023-12-20T10:37:25;94463.55;;;5.32;59.55
84028;BME280;74111;45.650;25.612;2023-12-20T10:39:55;94463.46;;;5.40;58.21
84028;BME280;74111;45.650;25.612;2023-12-20T10:42:26;94453.74;;;5.45;57.50
84028;BME280;74111;45.650;25.612;2023-12-20T10:44:56;94449.27;;;5.48;58.02
84028;BME280;74111;45.650;25.612;2023-12-20T10:47:25;94447.83;;;5.54;58.58
84028;BME280;74111;45.650;25.612;2023-12-20T10:49:55;94443.31;;;5.61;58.07
84028;BME280;74111;45.650;25.612;2023-12-20T10:52:28;94440.70;;;5.72;57.96
84028;BME280;74111;45.650;25.612;2023-12-20T10:54:59;94431.43;;;5.78;57.04
84028;BME280;74111;45.650;25.612;2023-12-20T10:57:28;94424.77;;;5.83;57.45
84028;BME280;74111;45.650;25.612;2023-12-20T11:00:01;94416.84;;;5.92;58.40
84028;BME280;74111;45.650;25.612;2023-12-20T11:02:39;94412.95;;;6.06;57.75
84028;BME280;74111;45.650;25.612;2023-12-20T11:05:36;94408.41;;;6.17;57.73
84028;BME280;74111;45.650;25.612;2023-12-20T11:08:12;94407.91;;;6.33;58.01
84028;BME280;74111;45.650;25.612;2023-12-20T11:11:07;94400.30;;;6.43;57.27
84028;BME280;74111;45.650;25.612;2023-12-20T11:13:55;94390.46;;;6.53;56.36
84028;BME280;74111;45.650;25.612;2023-12-20T11:16:26;94388.05;;;6.58;56.76
84028;BME280;74111;45.650;25.612;2023-12-20T11:19:11;94382.11;;;6.68;56.66
84028;BME280;74111;45.650;25.612;2023-12-20T11:21:43;94379.32;;;6.77;57.19
84028;BME280;74111;45.650;25.612;2023-12-20T11:24:12;94372.01;;;6.89;57.01
84028;BME280;74111;45.650;25.612;2023-12-20T11:26:47;94372.90;;;6.99;55.71
84028;BME280;74111;45.650;25.612;2023-12-20T11:32:03;94367.05;;;7.17;54.01
84028;BME280;74111;45.650;25.612;2023-12-20T11:34:33;94364.52;;;7.30;53.62
84028;BME280;74111;45.650;25.612;2023-12-20T11:37:02;94360.57;;;8.12;53.71
84028;BME280;74111;45.650;25.612;2023-12-20T11:39:34;94356.64;;;8.65;54.42
84028;BME280;74111;45.650;25.612;2023-12-20T11:42:06;94354.41;;;8.78;50.94
84028;BME280;74111;45.650;25.612;2023-12-20T11:44:37;94349.03;;;8.74;51.64
84028;BME280;74111;45.650;25.612;2023-12-20T11:47:06;94344.36;;;8.80;52.15
84028;BME280;74111;45.650;25.612;2023-12-20T11:49:36;94339.43;;;8.96;52.18
84028;BME280;74111;45.650;25.612;2023-12-20T11:52:05;94338.08;;;8.91;49.92
84028;BME280;74111;45.650;25.612;2023-12-20T11:54:34;94333.75;;;8.76;50.88
84028;BME280;74111;45.650;25.612;2023-12-20T11:57:04;94331.52;;;8.55;51.21
84028;BME280;74111;45.650;25.612;2023-12-20T11:59:33;94326.91;;;8.39;50.87
84028;BME280;74111;45.650;25.612;2023-12-20T12:02:02;94329.65;;;8.21;52.20
84028;BME280;74111;45.650;25.612;2023-12-20T12:04:31;94328.56;;;8.04;53.28
84028;BME280;74111;45.650;25.612;2023-12-20T12:07:02;94325.73;;;7.89;52.54
84028;BME280;74111;45.650;25.612;2023-12-20T12:09:32;94318.48;;;7.68;52.08
84028;BME280;74111;45.650;25.612;2023-12-20T12:12:01;94311.11;;;7.52;52.87
84028;BME280;74111;45.650;25.612;2023-12-20T12:14:31;94309.45;;;7.35;53.07
84028;BME280;74111;45.650;25.612;2023-12-20T12:17:00;94299.00;;;7.22;54.10
84028;BME280;74111;45.650;25.612;2023-12-20T12:19:30;94299.07;;;7.22;54.36
84028;BME280;74111;45.650;25.612;2023-12-20T12:22:05;94299.63;;;7.20;53.67
84028;BME280;74111;45.650;25.612;2023-12-20T12:24:44;94292.69;;;7.10;53.65
84028;BME280;74111;45.650;25.612;2023-12-20T12:27:13;94280.52;;;7.01;54.10
84028;BME280;74111;45.650;25.612;2023-12-20T12:30:00;94270.63;;;6.93;55.28
84028;BME280;74111;45.650;25.612;2023-12-20T12:32:31;94272.65;;;6.92;55.51
84028;BME280;74111;45.650;25.612;2023-12-20T12:35:03;94275.91;;;6.85;55.58
84028;BME280;74111;45.650;25.612;2023-12-20T12:37:34;94266.00;;;6.80;56.05
84028;BME280;74111;45.650;25.612;2023-12-20T12:40:06;94259.06;;;6.78;56.50
84028;BME280;74111;45.650;25.612;2023-12-20T12:42:40;94249.41;;;6.79;56.61
84028;BME280;74111;45.650;25.612;2023-12-20T12:45:09;94246.32;;;6.74;56.47
84028;BME280;74111;45.650;25.612;2023-12-20T12:47:39;94250.61;;;6.66;55.99
84028;BME280;74111;45.650;25.612;2023-12-20T12:50:10;94252.15;;;6.54;56.80
84028;BME280;74111;45.650;25.612;2023-12-20T12:52:39;94252.17;;;6.51;57.68
84028;BME280;74111;45.650;25.612;2023-12-20T12:55:09;94246.70;;;6.48;57.56
84028;BME280;74111;45.650;25.612;2023-12-20T12:57:38;94243.78;;;6.43;57.35
84028;BME280;74111;45.650;25.612;2023-12-20T13:00:08;94237.36;;;6.33;57.20
84028;BME280;74111;45.650;25.612;2023-12-20T13:02:37;94231.04;;;6.23;57.44
84028;BME280;74111;45.650;25.612;2023-12-20T13:05:11;94240.56;;;6.18;57.70
84028;BME280;74111;45.650;25.612;2023-12-20T13:07:40;94245.65;;;6.18;58.28
84028;BME280;74111;45.650;25.612;2023-12-20T13:10:09;94241.77;;;6.17;58.44
84028;BME280;74111;45.650;25.612;2023-12-20T13:12:40;94234.97;;;6.09;58.06
84028;BME280;74111;45.650;25.612;2023-12-20T13:15:08;94231.77;;;5.98;58.16
84028;BME280;74111;45.650;25.612;2023-12-20T13:17:38;94236.89;;;5.83;58.17
84028;BME280;74111;45.650;25.612;2023-12-20T13:20:07;94239.64;;;5.74;58.88
84028;BME280;74111;45.650;25.612;2023-12-20T13:22:37;94234.45;;;5.67;58.82
84028;BME280;74111;45.650;25.612;2023-12-20T13:25:06;94235.00;;;5.59;58.84
84028;BME280;74111;45.650;25.612;2023-12-20T13:27:35;94234.56;;;5.50;59.38
84028;BME280;74111;45.650;25.612;2023-12-20T13:30:04;94239.45;;;5.40;59.82
84028;BME280;74111;45.650;25.612;2023-12-20T13:32:33;94236.58;;;5.30;59.96
84028;BME280;74111;45.650;25.612;2023-12-20T13:35:02;94235.13;;;5.21;59.78
84028;BME280;74111;45.650;25.612;2023-12-20T13:37:34;94238.30;;;5.18;60.23
84028;BME280;74111;45.650;25.612;2023-12-20T13:40:04;94236.09;;;5.20;59.57
84028;BME280;74111;45.650;25.612;2023-12-20T13:42:35;94238.88;;;5.13;58.83
84028;BME280;74111;45.650;25.612;2023-12-20T13:45:05;94242.09;;;5.08;59.08
84028;BME280;74111;45.650;25.612;2023-12-20T13:47:35;94244.77;;;5.06;59.70
84028;BME280;74111;45.650;25.612;2023-12-20T13:50:04;94246.35;;;5.06;59.64
84028;BME280;74111;45.650;25.612;2023-12-20T13:52:34;94244.17;;;5.04;60.82
84028;BME280;74111;45.650;25.612;2023-12-20T13:55:07;94238.60;;;5.02;60.10
84028;BME280;74111;45.650;25.612;2023-12-20T13:57:36;94234.55;;;4.97;60.13
84028;BME280;74111;45.650;25.612;2023-12-20T14:00:23;94226.98;;;4.90;59.56
84028;BME280;74111;45.650;25.612;2023-12-20T14:02:52;94225.17;;;4.83;60.17
84028;BME280;74111;45.650;25.612;2023-12-20T14:05:22;94218.17;;;4.78;60.04
84028;BME280;74111;45.650;25.612;2023-12-20T14:07:56;94229.35;;;4.77;60.56
84028;BME280;74111;45.650;25.612;2023-12-20T14:10:28;94235.70;;;4.76;61.08
84028;BME280;74111;45.650;25.612;2023-12-20T14:12:57;94234.96;;;4.76;60.79
84028;BME280;74111;45.650;25.612;2023-12-20T14:15:26;94236.23;;;4.72;60.49
84028;BME280;74111;45.650;25.612;2023-12-20T14:17:55;94236.81;;;4.67;60.93
84028;BME280;74111;45.650;25.612;2023-12-20T14:20:24;94237.25;;;4.65;61.45
84028;BME280;74111;45.650;25.612;2023-12-20T14:22:57;94235.89;;;4.64;60.77
84028;BME280;74111;45.650;25.612;2023-12-20T14:25:27;94235.73;;;4.64;60.73
84028;BME280;74111;45.650;25.612;2023-12-20T14:28:02;94227.11;;;4.62;60.95
84028;BME280;74111;45.650;25.612;2023-12-20T14:30:33;94216.00;;;4.60;61.07
84028;BME280;74111;45.650;25.612;2023-12-20T14:33:04;94211.64;;;4.58;60.90
84028;BME280;74111;45.650;25.612;2023-12-20T14:35:34;94202.98;;;4.55;61.35
84028;BME280;74111;45.650;25.612;2023-12-20T14:38:03;94196.47;;;4.53;61.00
84028;BME280;74111;45.650;25.612;2023-12-20T14:40:32;94196.19;;;4.55;61.33
84028;BME280;74111;45.650;25.612;2023-12-20T14:43:01;94194.46;;;4.53;61.87
84028;BME280;74111;45.650;25.612;2023-12-20T14:45:33;94201.40;;;4.55;61.12
84028;BME280;74111;45.650;25.612;2023-12-20T14:48:03;94202.84;;;4.54;60.94
84028;BME280;74111;45.650;25.612;2023-12-20T14:50:31;94199.86;;;4.51;61.08
84028;BME280;74111;45.650;25.612;2023-12-20T14:53:00;94191.98;;;4.49;62.36
84028;BME280;74111;45.650;25.612;2023-12-20T14:55:29;94195.54;;;4.51;62.18
84028;BME280;74111;45.650;25.612;2023-12-20T14:57:59;94195.94;;;4.53;61.59
84028;BME280;74111;45.650;25.612;2023-12-20T15:00:29;94200.72;;;4.50;61.57
84028;BME280;74111;45.650;25.612;2023-12-20T15:02:59;94212.71;;;4.44;61.51
84028;BME280;74111;45.650;25.612;2023-12-20T15:05:29;94206.41;;;4.42;62.17
84028;BME280;74111;45.650;25.612;2023-12-20T15:07:58;94200.13;;;4.42;61.59
84028;BME280;74111;45.650;25.612;2023-12-20T15:10:27;94189.11;;;4.41;61.48
84028;BME280;74111;45.650;25.612;2023-12-20T15:12:57;94186.08;;;4.39;61.58
84028;BME280;74111;45.650;25.612;2023-12-20T15:15:26;94193.00;;;4.38;61.49
84028;BME280;74111;45.650;25.612;2023-12-20T15:17:57;94185.08;;;4.34;61.54
84028;BME280;74111;45.650;25.612;2023-12-20T15:20:25;94183.08;;;4.30;61.58
84028;BME280;74111;45.650;25.612;2023-12-20T15:22:54;94188.42;;;4.26;62.00
84028;BME280;74111;45.650;25.612;2023-12-20T15:25:24;94191.58;;;4.24;62.72
84028;BME280;74111;45.650;25.612;2023-12-20T15:27:53;94191.55;;;4.21;62.77
84028;BME280;74111;45.650;25.612;2023-12-20T15:30:22;94188.27;;;4.18;63.03
84028;BME280;74111;45.650;25.612;2023-12-20T15:32:53;94183.31;;;4.12;63.60
84028;BME280;74111;45.650;25.612;2023-12-20T15:35:23;94182.23;;;4.11;63.72
84028;BME280;74111;45.650;25.612;2023-12-20T15:37:52;94167.23;;;4.03;64.35
84028;BME280;74111;45.650;25.612;2023-12-20T15:40:22;94155.48;;;3.98;63.88
84028;BME280;74111;45.650;25.612;2023-12-20T15:42:51;94146.16;;;3.97;63.87
84028;BME280;74111;45.650;25.612;2023-12-20T15:45:21;94142.96;;;3.95;63.70
84028;BME280;74111;45.650;25.612;2023-12-20T15:47:50;94157.13;;;3.97;63.88
84028;BME280;74111;45.650;25.612;2023-12-20T15:50:19;94170.77;;;3.98;63.78
84028;BME280;74111;45.650;25.612;2023-12-20T15:52:48;94171.48;;;3.95;64.77
84028;BME280;74111;45.650;25.612;2023-12-20T15:55:17;94164.50;;;3.93;64.26
84028;BME280;74111;45.650;25.612;2023-12-20T15:57:47;94175.07;;;3.94;64.53
84028;BME280;74111;45.650;25.612;2023-12-20T16:00:22;94176.79;;;3.92;65.74
84028;BME280;74111;45.650;25.612;2023-12-20T16:02:52;94169.05;;;3.89;64.96
84028;BME280;74111;45.650;25.612;2023-12-20T16:05:20;94157.15;;;3.90;64.38
84028;BME280;74111;45.650;25.612;2023-12-20T16:07:49;94151.55;;;3.97;64.20
84028;BME280;74111;45.650;25.612;2023-12-20T16:10:20;94172.88;;;4.02;63.98
84028;BME280;74111;45.650;25.612;2023-12-20T16:12:49;94176.13;;;4.04;64.37
84028;BME280;74111;45.650;25.612;2023-12-20T16:15:18;94170.56;;;4.08;64.74
84028;BME280;74111;45.650;25.612;2023-12-20T16:17:48;94166.05;;;4.16;65.52
84028;BME280;74111;45.650;25.612;2023-12-20T16:20:17;94164.35;;;4.21;64.63
84028;BME280;74111;45.650;25.612;2023-12-20T16:22:46;94189.04;;;4.19;64.95
84028;BME280;74111;45.650;25.612;2023-12-20T16:25:16;94191.14;;;4.19;64.52
84028;BME280;74111;45.650;25.612;2023-12-20T16:27:45;94189.59;;;4.18;64.69
84028;BME280;74111;45.650;25.612;2023-12-20T16:30:17;94189.39;;;4.17;65.56
84028;BME280;74111;45.650;25.612;2023-12-20T16:32:48;94188.80;;;4.18;64.73
84028;BME280;74111;45.650;25.612;2023-12-20T16:35:18;94178.33;;;4.14;65.11
84028;BME280;74111;45.650;25.612;2023-12-20T16:37:47;94177.51;;;4.13;65.19
